createdAt,value
2023-01-03T00:07:03.282Z,0
2023-01-03T00:17:03.112Z,0
2023-01-03T00:27:03.180Z,0
2023-01-03T00:37:03.053Z,1
2023-01-03T00:47:03.286Z,0
2023-01-03T00:57:03.244Z,0
2023-01-03T01:07:03.175Z,0
2023-01-03T01:17:03.232Z,0
2023-01-03T01:27:03.572Z,0
2023-01-03T01:37:03.225Z,0
2023-01-03T01:47:03.174Z,0
2023-01-03T01:57:03.223Z,0
2023-01-03T02:07:03.155Z,0
2023-01-03T02:17:03.229Z,0
2023-01-03T02:27:03.351Z,0
2023-01-03T02:37:03.250Z,0
2023-01-03T02:47:03.453Z,0
2023-01-03T02:57:03.211Z,0
2023-01-03T03:07:03.341Z,0
2023-01-03T03:17:03.215Z,0
2023-01-03T03:27:03.331Z,0
2023-01-03T03:37:03.402Z,0
2023-01-03T03:47:04.695Z,0
2023-01-03T03:57:03.242Z,0
2023-01-03T04:07:03.360Z,0
2023-01-03T04:17:03.441Z,0
2023-01-03T04:27:03.372Z,0
2023-01-03T04:37:03.450Z,0
2023-01-03T04:47:03.396Z,0
2023-01-03T04:57:03.439Z,1
2023-01-03T05:07:03.439Z,6
2023-01-03T05:17:03.516Z,0
2023-01-03T05:27:03.559Z,4
2023-01-03T05:37:03.432Z,4
2023-01-03T05:47:03.565Z,2
2023-01-03T05:57:03.421Z,2
2023-01-03T06:07:03.539Z,1
2023-01-03T06:17:03.495Z,2
2023-01-03T06:27:03.559Z,4
2023-01-03T06:37:03.432Z,5
2023-01-03T06:47:03.566Z,7
2023-01-03T06:57:03.627Z,3
2023-01-03T07:07:03.550Z,5
2023-01-03T07:17:03.617Z,4
2023-01-03T07:27:03.536Z,11
2023-01-03T07:37:03.609Z,5
2023-01-03T07:47:03.551Z,8
2023-01-03T07:57:03.632Z,10
2023-01-03T08:07:03.641Z,11
2023-01-03T08:17:03.607Z,9
2023-01-03T08:27:03.534Z,5
2023-01-03T08:37:03.613Z,5
2023-01-03T08:47:03.824Z,3
2023-01-03T08:57:03.641Z,7
2023-01-03T09:07:03.742Z,8
2023-01-03T09:17:03.628Z,3
2023-01-03T09:27:03.803Z,4
2023-01-03T09:37:03.627Z,4
2023-01-03T09:47:03.970Z,8
2023-01-03T09:57:03.606Z,3
2023-01-03T10:07:03.756Z,3
2023-01-03T10:17:04.102Z,6
2023-01-03T10:27:03.738Z,2
2023-01-03T10:37:04.835Z,6
2023-01-03T10:47:03.880Z,6
2023-01-03T10:57:03.805Z,6
2023-01-03T11:07:03.729Z,8
2023-01-03T11:17:03.941Z,4
2023-01-03T11:27:03.704Z,2
2023-01-03T11:37:03.790Z,3
2023-01-03T11:47:03.916Z,10
2023-01-03T11:57:03.798Z,1
2023-01-03T12:07:37.295Z,4
2023-01-03T12:17:03.785Z,3
2023-01-03T12:27:03.897Z,2
2023-01-03T12:37:03.785Z,2
2023-01-03T12:47:03.984Z,7
2023-01-03T12:57:03.981Z,2
2023-01-03T13:07:03.899Z,6
2023-01-03T13:17:03.976Z,6
2023-01-03T13:27:03.894Z,2
2023-01-03T13:37:03.982Z,8
2023-01-03T13:47:03.949Z,3
2023-01-03T13:57:03.966Z,6
2023-01-03T14:07:03.920Z,3
2023-01-03T14:17:03.944Z,5
2023-01-03T14:27:04.086Z,5
2023-01-03T14:37:03.957Z,5
2023-01-03T14:47:04.195Z,6
2023-01-03T14:57:03.938Z,2
2023-01-03T15:07:09.457Z,9
2023-01-03T15:17:03.948Z,11
2023-01-03T15:27:04.060Z,10
2023-01-03T15:37:04.143Z,13
2023-01-03T15:47:04.068Z,9
2023-01-03T15:57:04.144Z,12
2023-01-03T16:07:04.048Z,7
2023-01-03T16:17:04.205Z,13
2023-01-03T16:27:04.048Z,2
2023-01-03T16:37:04.120Z,4
2023-01-03T16:47:04.074Z,6
2023-01-03T16:57:04.119Z,4
2023-01-03T17:07:04.241Z,4
2023-01-03T17:17:04.197Z,6
2023-01-03T17:27:04.251Z,2
2023-01-03T17:37:04.094Z,1
2023-01-03T17:47:04.244Z,1
2023-01-03T17:57:04.127Z,4
2023-01-03T18:07:04.228Z,2
2023-01-03T18:17:04.121Z,1
2023-01-03T18:27:04.270Z,1
2023-01-03T18:37:04.317Z,0
2023-01-03T18:47:04.277Z,1
2023-01-03T18:57:04.430Z,0
2023-01-03T19:07:04.236Z,0
2023-01-03T19:17:04.307Z,0
2023-01-03T19:27:04.243Z,1
2023-01-03T19:37:04.317Z,2
2023-01-03T19:47:04.334Z,4
2023-01-03T19:57:04.308Z,6
2023-01-03T20:07:04.213Z,4
2023-01-03T20:17:04.301Z,6
2023-01-03T20:27:04.420Z,0
2023-01-03T20:37:04.301Z,8
2023-01-03T20:47:04.513Z,9
2023-01-03T20:57:04.277Z,21
2023-01-03T21:07:09.562Z,10
2023-01-03T21:17:04.311Z,16
2023-01-03T21:27:04.413Z,17
2023-01-03T21:37:04.489Z,5
2023-01-03T21:47:04.429Z,3
2023-01-03T21:57:04.509Z,6
2023-01-03T22:07:04.418Z,8
2023-01-03T22:17:04.482Z,7
2023-01-03T22:27:04.401Z,13
2023-01-03T22:37:04.464Z,10
2023-01-03T22:47:04.425Z,8
2023-01-03T22:57:04.450Z,6
2023-01-03T23:07:04.599Z,10
2023-01-03T23:17:04.564Z,11
2023-01-03T23:27:04.586Z,17
2023-01-03T23:37:04.486Z,6
2023-01-03T23:47:09.474Z,5
2023-01-03T23:57:04.454Z,4
